Time;durP1;ratioP1;P1;durP2;ratioP2;P2;SDS_P1;SDS_P2;PMS_P1;PMS_P2;Temp;Humidity;BMP_temperature;BMP_pressure;BME280_temperature;BME280_humidity;BME280_pressure;Samples;Min_cycle;Max_cycle;Signal;HPM_P1;HPM_P2
2021/08/16 00:01:42;;;;;;;0.57;0.57;;;9.80;99.90;;;;;;5096834;27;20189;-81
2021/08/16 00:04:08;;;;;;;0.30;0.30;;;9.80;99.90;;;;;;5076163;28;20751;-81
2021/08/16 00:06:34;;;;;;;0.35;0.35;;;9.80;99.90;;;;;;5094203;28;20201;-82
2021/08/16 00:08:59;;;;;;;0.43;0.43;;;9.70;99.90;;;;;;5111202;27;20187;-81
2021/08/16 00:11:25;;;;;;;0.40;0.40;;;9.70;99.90;;;;;;5076760;28;20202;-81
2021/08/16 00:13:51;;;;;;;0.25;0.25;;;9.70;99.90;;;;;;5091754;28;20694;-81
2021/08/16 00:16:16;;;;;;;0.20;0.20;;;9.70;99.90;;;;;;5104363;27;20224;-81
2021/08/16 00:18:47;;;;;;;0.28;0.28;;;9.70;99.90;;;;;;5062723;28;20205;-81
2021/08/16 00:21:14;;;;;;;0.28;0.28;;;9.60;99.90;;;;;;5071555;28;20558;-81
2021/08/16 00:23:40;;;;;;;0.45;0.38;;;9.60;99.90;;;;;;5085790;28;20663;-81
2021/08/16 00:26:06;;;;;;;0.25;0.25;;;9.60;99.90;;;;;;5080287;28;20204;-81
2021/08/16 00:28:31;;;;;;;0.20;0.20;;;9.60;99.90;;;;;;5094695;28;20693;-81
2021/08/16 00:30:57;;;;;;;0.20;0.20;;;9.60;99.90;;;;;;5081407;28;20203;-81
2021/08/16 00:33:23;;;;;;;0.30;0.30;;;9.50;99.90;;;;;;5124748;27;20668;-81
2021/08/16 00:35:50;;;;;;;0.20;0.20;;;9.60;99.90;;;;;;5075318;28;20189;-81
2021/08/16 00:38:16;;;;;;;0.30;0.30;;;9.50;99.90;;;;;;5076451;28;20188;-81
2021/08/16 00:40:42;;;;;;;0.43;0.40;;;9.50;99.90;;;;;;5076928;28;20725;-81
2021/08/16 00:43:07;;;;;;;0.40;0.40;;;9.50;99.90;;;;;;5075241;28;20416;-81
2021/08/16 00:45:33;;;;;;;0.20;0.20;;;9.50;99.90;;;;;;5075943;28;20195;-81
2021/08/16 00:47:59;;;;;;;0.20;0.20;;;9.50;99.90;;;;;;5058220;28;20690;-81
2021/08/16 00:50:25;;;;;;;0.30;0.30;;;9.40;99.90;;;;;;5077843;28;20537;-80
2021/08/16 00:52:51;;;;;;;0.30;0.30;;;9.50;99.90;;;;;;5095622;28;20204;-80
2021/08/16 00:55:18;;;;;;;0.52;0.52;;;9.50;99.90;;;;;;5077251;28;20203;-80
2021/08/16 00:57:44;;;;;;;0.20;0.20;;;9.40;99.90;;;;;;5057841;28;20204;-81
2021/08/16 01:00:21;;;;;;;0.20;0.20;;;9.40;99.90;;;;;;5105286;27;20227;-81
2021/08/16 01:02:47;;;;;;;2.28;0.52;;;9.40;99.90;;;;;;5093003;28;20262;-81
2021/08/16 01:05:14;;;;;;;1.20;1.10;;;9.40;99.90;;;;;;5071074;23;20237;-71
2021/08/16 01:07:46;;;;;;;0.20;0.20;;;9.40;99.90;;;;;;5064349;28;20205;-71
2021/08/16 01:10:16;;;;;;;0.30;0.30;;;9.40;99.90;;;;;;5060055;28;20208;-72
2021/08/16 01:12:42;;;;;;;0.20;0.20;;;9.40;99.90;;;;;;5071084;28;20667;-73
2021/08/16 01:15:11;;;;;;;0.28;0.28;;;9.30;99.90;;;;;;5056560;28;20288;-71
2021/08/16 01:17:37;;;;;;;0.20;0.20;;;9.30;99.90;;;;;;5069971;28;20726;-72
2021/08/16 01:20:08;;;;;;;0.32;0.32;;;9.30;99.90;;;;;;5071178;28;20244;-72
2021/08/16 01:22:34;;;;;;;0.47;0.47;;;9.30;99.90;;;;;;5072612;28;20209;-72
2021/08/16 01:25:05;;;;;;;0.28;0.28;;;9.30;99.90;;;;;;5072069;28;20247;-73
2021/08/16 01:27:30;;;;;;;0.30;0.30;;;9.30;99.90;;;;;;5068443;28;20571;-73
2021/08/16 01:29:58;;;;;;;0.22;0.22;;;9.30;99.90;;;;;;5066808;28;20201;-73
2021/08/16 01:32:24;;;;;;;0.40;0.40;;;9.30;99.90;;;;;;5068384;28;20208;-73
2021/08/16 01:34:49;;;;;;;0.20;0.20;;;9.30;99.90;;;;;;5071842;28;20220;-72
2021/08/16 01:37:15;;;;;;;0.30;0.30;;;9.30;99.90;;;;;;5070742;28;20197;-73
2021/08/16 01:39:41;;;;;;;0.20;0.20;;;9.30;99.90;;;;;;5072783;28;20201;-73
2021/08/16 01:42:06;;;;;;;0.30;0.30;;;9.30;99.90;;;;;;5070511;28;20677;-73
2021/08/16 01:44:32;;;;;;;0.40;0.40;;;9.30;99.90;;;;;;5070031;28;20676;-73
2021/08/16 01:46:58;;;;;;;3.00;1.10;;;9.30;99.90;;;;;;5070539;28;20199;-72
2021/08/16 01:49:23;;;;;;;0.22;0.22;;;9.30;99.90;;;;;;5072934;28;20287;-73
2021/08/16 01:51:49;;;;;;;0.25;0.25;;;9.30;99.90;;;;;;5055965;28;20217;-73
2021/08/16 01:54:17;;;;;;;0.35;0.35;;;9.20;99.90;;;;;;5068835;28;20236;-73
2021/08/16 01:56:43;;;;;;;0.30;0.30;;;9.20;99.90;;;;;;5071536;28;20201;-73
2021/08/16 01:59:10;;;;;;;0.22;0.22;;;9.20;99.90;;;;;;5064543;28;20247;-73
2021/08/16 02:01:35;;;;;;;0.50;0.50;;;9.20;99.90;;;;;;5061105;28;20262;-73
2021/08/16 02:04:01;;;;;;;0.20;0.20;;;9.20;99.90;;;;;;5071456;28;20606;-73
2021/08/16 02:06:27;;;;;;;0.70;0.60;;;9.20;99.90;;;;;;5071297;28;20259;-72
2021/08/16 02:08:52;;;;;;;0.20;0.20;;;9.10;99.90;;;;;;5069997;28;20205;-72
2021/08/16 02:11:18;;;;;;;0.90;0.82;;;9.20;99.90;;;;;;5072609;28;20300;-72
2021/08/16 02:13:44;;;;;;;1.00;0.88;;;9.20;99.90;;;;;;5071455;28;20208;-72
2021/08/16 02:16:11;;;;;;;0.30;0.30;;;9.20;99.90;;;;;;5071290;28;20196;-72
2021/08/16 02:18:36;;;;;;;0.35;0.35;;;9.10;99.90;;;;;;5071171;28;20289;-72
2021/08/16 02:21:02;;;;;;;0.20;0.20;;;9.20;99.90;;;;;;5070062;28;20238;-73
2021/08/16 02:23:29;;;;;;;0.47;0.47;;;9.10;99.90;;;;;;5071057;28;20212;-72
2021/08/16 02:25:55;;;;;;;0.50;0.50;;;9.10;99.90;;;;;;5069577;28;20223;-72
2021/08/16 02:28:20;;;;;;;0.57;0.57;;;9.10;99.90;;;;;;5070929;28;20201;-72
2021/08/16 02:30:47;;;;;;;0.20;0.20;;;9.00;99.90;;;;;;5069979;28;20250;-72
2021/08/16 02:33:14;;;;;;;0.20;0.20;;;9.00;99.90;;;;;;5071633;28;20246;-72
2021/08/16 02:35:41;;;;;;;0.40;0.40;;;9.00;99.90;;;;;;5072231;28;20189;-70
2021/08/16 02:38:07;;;;;;;0.40;0.40;;;9.00;99.90;;;;;;5069882;28;20197;-72
2021/08/16 02:40:33;;;;;;;0.20;0.20;;;9.00;99.90;;;;;;5071197;28;20205;-72
2021/08/16 02:42:59;;;;;;;0.20;0.20;;;9.00;99.90;;;;;;5069743;28;20228;-72
2021/08/16 02:45:25;;;;;;;0.30;0.30;;;9.00;99.90;;;;;;5070754;28;20209;-72
2021/08/16 02:47:52;;;;;;;0.20;0.20;;;9.00;99.90;;;;;;5071316;28;20232;-73
2021/08/16 02:50:18;;;;;;;0.20;0.20;;;8.90;99.90;;;;;;5071000;28;20204;-73
2021/08/16 02:52:43;;;;;;;0.20;0.20;;;8.90;99.90;;;;;;5069660;28;20200;-74
2021/08/16 02:55:10;;;;;;;0.70;0.70;;;8.90;99.90;;;;;;5072037;28;20233;-73
2021/08/16 02:57:36;;;;;;;1.00;0.88;;;8.90;99.90;;;;;;5070734;28;20196;-71
2021/08/16 03:00:03;;;;;;;0.30;0.30;;;8.90;99.90;;;;;;5070894;28;20212;-73
2021/08/16 03:02:29;;;;;;;0.30;0.30;;;8.90;99.90;;;;;;5069867;28;20662;-71
2021/08/16 03:04:55;;;;;;;0.30;0.30;;;8.90;99.90;;;;;;5070483;28;20237;-71
2021/08/16 03:07:21;;;;;;;0.30;0.30;;;8.80;99.90;;;;;;5069363;28;20319;-71
2021/08/16 03:09:46;;;;;;;0.35;0.35;;;8.80;99.90;;;;;;5069491;28;20745;-71
2021/08/16 03:12:12;;;;;;;0.30;0.30;;;8.70;99.90;;;;;;5071049;28;20292;-70
2021/08/16 03:14:38;;;;;;;0.20;0.20;;;8.70;99.90;;;;;;5069255;28;20220;-71
2021/08/16 03:17:04;;;;;;;0.43;0.43;;;8.70;99.90;;;;;;5067399;28;20205;-71
2021/08/16 03:19:30;;;;;;;0.30;0.30;;;8.80;99.90;;;;;;5059388;28;20216;-70
2021/08/16 03:21:56;;;;;;;0.30;0.30;;;8.80;99.90;;;;;;5069334;28;20205;-70
2021/08/16 03:24:23;;;;;;;0.45;0.45;;;8.80;99.90;;;;;;5070675;28;20596;-72
2021/08/16 03:26:49;;;;;;;0.30;0.30;;;8.90;99.90;;;;;;5072099;28;20275;-73
2021/08/16 03:29:15;;;;;;;0.65;0.65;;;8.90;99.90;;;;;;5071033;28;20232;-72
2021/08/16 03:31:41;;;;;;;0.68;0.60;;;8.90;99.90;;;;;;5070564;28;20204;-72
2021/08/16 03:34:07;;;;;;;0.20;0.20;;;9.00;99.90;;;;;;5070485;28;20209;-72
2021/08/16 03:36:33;;;;;;;0.30;0.30;;;9.00;99.90;;;;;;5055555;23;20272;-81
2021/08/16 03:38:59;;;;;;;1.73;1.17;;;9.00;99.90;;;;;;5032996;28;20264;-81
2021/08/16 03:41:24;;;;;;;0.50;0.50;;;9.10;99.90;;;;;;5054643;28;20210;-81
2021/08/16 03:43:51;;;;;;;0.50;0.50;;;9.10;99.90;;;;;;5031908;28;20209;-81
2021/08/16 03:46:17;;;;;;;0.20;0.20;;;9.10;99.90;;;;;;5021170;28;20233;-81
2021/08/16 03:48:43;;;;;;;0.20;0.20;;;9.10;99.90;;;;;;5051366;28;20201;-81
2021/08/16 03:51:09;;;;;;;0.20;0.20;;;9.10;99.90;;;;;;5020443;28;20209;-81
2021/08/16 03:53:35;;;;;;;0.30;0.30;;;9.00;99.90;;;;;;5034989;28;20216;-82
2021/08/16 03:56:00;;;;;;;0.20;0.20;;;9.00;99.90;;;;;;5036164;28;20201;-81
2021/08/16 03:58:27;;;;;;;0.28;0.28;;;9.00;99.90;;;;;;5033558;28;20594;-81
2021/08/16 04:00:52;;;;;;;0.40;0.40;;;9.00;99.90;;;;;;5035617;28;20204;-81
2021/08/16 04:03:18;;;;;;;0.20;0.20;;;9.00;99.90;;;;;;5035644;28;20202;-82
2021/08/16 04:05:44;;;;;;;0.20;0.20;;;9.00;99.90;;;;;;5036859;28;20284;-81
2021/08/16 04:08:09;;;;;;;0.22;0.22;;;9.00;99.90;;;;;;5036867;28;20212;-81
2021/08/16 04:10:35;;;;;;;0.30;0.30;;;9.00;99.90;;;;;;5034406;28;20706;-81
2021/08/16 04:13:01;;;;;;;0.30;0.30;;;9.00;99.90;;;;;;5021708;28;20202;-81
2021/08/16 04:15:27;;;;;;;0.30;0.30;;;9.00;99.90;;;;;;5009109;28;20210;-81
2021/08/16 04:17:52;;;;;;;0.30;0.30;;;9.00;99.90;;;;;;5030304;28;20563;-82
2021/08/16 04:20:18;;;;;;;0.20;0.20;;;9.00;99.90;;;;;;5035575;28;20209;-82
2021/08/16 04:22:45;;;;;;;1.60;1.05;;;9.00;99.90;;;;;;5036290;28;20209;-81
2021/08/16 04:25:13;;;;;;;0.30;0.30;;;9.00;99.90;;;;;;5035477;28;20216;-81
2021/08/16 04:27:40;;;;;;;0.40;0.40;;;9.00;99.90;;;;;;5036308;28;20217;-81
2021/08/16 04:30:07;;;;;;;0.40;0.40;;;9.00;99.90;;;;;;5043618;28;20211;-81
2021/08/16 04:32:32;;;;;;;0.30;0.30;;;9.00;99.90;;;;;;5046202;28;20204;-81
2021/08/16 04:34:58;;;;;;;0.22;0.22;;;9.10;99.90;;;;;;5036116;28;20291;-81
2021/08/16 04:37:24;;;;;;;0.20;0.20;;;9.10;99.90;;;;;;5035429;28;20253;-81
2021/08/16 04:39:50;;;;;;;0.30;0.30;;;9.20;99.90;;;;;;5053245;28;20537;-82
2021/08/16 04:42:15;;;;;;;0.40;0.40;;;9.20;99.90;;;;;;5036387;28;20204;-81
2021/08/16 04:44:41;;;;;;;0.95;0.85;;;9.30;99.90;;;;;;5036163;28;20292;-81
2021/08/16 04:47:07;;;;;;;0.55;0.55;;;9.30;99.90;;;;;;5036064;28;20205;-81
2021/08/16 04:49:33;;;;;;;0.30;0.30;;;9.40;99.90;;;;;;5032481;28;20213;-81
2021/08/16 04:51:58;;;;;;;0.20;0.20;;;9.40;99.90;;;;;;5035152;28;20568;-81
2021/08/16 04:54:24;;;;;;;0.20;0.20;;;9.50;99.90;;;;;;5035814;28;20216;-81
2021/08/16 04:56:50;;;;;;;0.20;0.20;;;9.60;99.90;;;;;;5035739;28;20288;-81
2021/08/16 04:59:16;;;;;;;0.28;0.28;;;9.70;99.90;;;;;;5052659;28;20206;-82
2021/08/16 05:01:42;;;;;;;0.20;0.20;;;9.80;99.90;;;;;;5031754;28;20210;-81
2021/08/16 05:04:08;;;;;;;0.20;0.20;;;9.90;99.90;;;;;;5021595;28;20217;-81
2021/08/16 05:06:33;;;;;;;0.20;0.20;;;10.10;99.90;;;;;;5035239;28;20727;-81
2021/08/16 05:09:00;;;;;;;0.20;0.20;;;10.30;99.90;;;;;;5035578;28;20679;-82
2021/08/16 05:11:27;;;;;;;0.30;0.30;;;10.50;99.90;;;;;;5032358;28;20696;-81
2021/08/16 05:13:52;;;;;;;0.30;0.30;;;10.70;99.90;;;;;;5035002;28;20684;-81
2021/08/16 05:16:19;;;;;;;0.73;0.73;;;10.80;99.90;;;;;;5048198;28;20277;-82
2021/08/16 05:18:45;;;;;;;1.65;0.65;;;11.10;99.90;;;;;;5040020;28;20205;-81
2021/08/16 05:21:11;;;;;;;0.20;0.20;;;11.20;99.90;;;;;;5035343;28;20190;-81
2021/08/16 05:23:37;;;;;;;0.40;0.40;;;11.40;99.90;;;;;;5035328;28;20208;-81
2021/08/16 05:26:03;;;;;;;0.30;0.30;;;11.50;99.90;;;;;;5035291;28;20194;-82
2021/08/16 05:28:29;;;;;;;0.22;0.22;;;11.60;99.90;;;;;;5037321;28;20201;-81
2021/08/16 05:30:55;;;;;;;0.30;0.30;;;11.70;99.90;;;;;;5050787;28;20224;-81
2021/08/16 05:33:21;;;;;;;0.38;0.38;;;11.80;99.90;;;;;;5035129;28;20197;-82
2021/08/16 05:35:47;;;;;;;0.30;0.30;;;11.80;99.90;;;;;;5034375;28;20225;-82
2021/08/16 05:38:13;;;;;;;0.52;0.50;;;11.90;99.90;;;;;;5034256;28;20300;-82
2021/08/16 05:40:39;;;;;;;0.30;0.30;;;12.00;99.90;;;;;;5044480;28;20198;-82
2021/08/16 05:43:05;;;;;;;0.80;0.47;;;12.10;99.90;;;;;;5035088;28;20201;-82
2021/08/16 05:45:30;;;;;;;0.20;0.20;;;12.20;99.90;;;;;;5031722;28;20255;-82
2021/08/16 05:47:59;;;;;;;0.50;0.50;;;12.10;99.90;;;;;;5033946;28;20513;-82
2021/08/16 05:50:25;;;;;;;0.40;0.40;;;12.10;99.90;;;;;;5052762;28;20208;-81
2021/08/16 05:52:52;;;;;;;0.20;0.20;;;12.20;99.90;;;;;;5034976;28;20213;-82
2021/08/16 05:55:18;;;;;;;0.50;0.35;;;12.30;99.90;;;;;;5033999;28;20707;-82
2021/08/16 05:57:44;;;;;;;0.20;0.20;;;12.30;99.90;;;;;;5035296;28;20197;-82
2021/08/16 06:00:11;;;;;;;0.20;0.20;;;12.20;99.90;;;;;;5034448;28;20208;-82
2021/08/16 06:02:36;;;;;;;0.25;0.25;;;12.20;99.90;;;;;;5051173;28;20208;-82
2021/08/16 06:05:03;;;;;;;0.20;0.20;;;12.40;99.90;;;;;;5052691;28;20565;-82
2021/08/16 06:07:29;;;;;;;0.20;0.20;;;12.60;99.90;;;;;;5051384;28;20624;-81
2021/08/16 06:09:54;;;;;;;0.52;0.52;;;12.80;99.90;;;;;;5025466;28;20202;-82
2021/08/16 06:12:20;;;;;;;0.40;0.40;;;13.10;99.90;;;;;;5034533;28;20675;-82
2021/08/16 06:14:46;;;;;;;0.20;0.20;;;13.20;99.90;;;;;;5034593;28;20220;-81
2021/08/16 06:17:12;;;;;;;0.38;0.38;;;13.20;99.90;;;;;;5034517;28;20198;-81
2021/08/16 06:19:38;;;;;;;1.50;0.32;;;13.30;99.90;;;;;;5044059;28;20286;-82
2021/08/16 06:22:04;;;;;;;0.30;0.30;;;13.40;99.90;;;;;;5014385;28;20190;-82
2021/08/16 06:24:30;;;;;;;0.20;0.20;;;13.50;99.90;;;;;;5024747;28;20255;-82
2021/08/16 06:26:55;;;;;;;0.20;0.20;;;13.50;99.90;;;;;;5031709;28;20198;-85
2021/08/16 06:29:22;;;;;;;0.20;0.20;;;13.70;99.90;;;;;;5031218;28;20206;-82
2021/08/16 06:31:47;;;;;;;0.38;0.38;;;13.70;99.90;;;;;;5033458;28;20208;-81
2021/08/16 06:34:13;;;;;;;0.20;0.20;;;13.70;99.90;;;;;;5034313;28;20213;-82
2021/08/16 06:36:40;;;;;;;0.35;0.35;;;13.90;99.90;;;;;;5032740;28;20229;-81
2021/08/16 06:39:21;;;;;;;0.22;0.22;;;14.00;99.90;;;;;;5033293;28;20193;-82
2021/08/16 06:41:52;;;;;;;0.32;0.32;;;14.20;99.90;;;;;;5035417;28;20674;-82
2021/08/16 06:44:18;;;;;;;0.65;0.35;;;14.40;99.90;;;;;;5034212;28;20676;-82
2021/08/16 06:46:45;;;;;;;0.43;0.32;;;14.70;99.90;;;;;;5034207;28;20197;-82
2021/08/16 06:49:12;;;;;;;0.50;0.50;;;14.70;99.90;;;;;;5033448;28;20227;-81
2021/08/16 06:51:38;;;;;;;0.10;0.10;;;14.80;99.90;;;;;;5035032;28;20263;-82
2021/08/16 06:54:04;;;;;;;0.10;0.10;;;14.80;99.90;;;;;;5049129;28;20205;-82
2021/08/16 06:56:29;;;;;;;0.25;0.25;;;14.80;99.90;;;;;;5034098;28;20197;-82
2021/08/16 06:58:55;;;;;;;0.20;0.20;;;14.70;99.90;;;;;;5033384;28;20200;-81
2021/08/16 07:01:28;;;;;;;0.90;0.30;;;14.70;99.90;;;;;;5032049;28;20259;-82
2021/08/16 07:03:58;;;;;;;0.35;0.35;;;14.90;99.90;;;;;;5034047;28;20209;-82
2021/08/16 07:06:25;;;;;;;3.08;0.75;;;15.00;99.90;;;;;;5033861;28;20206;-82
2021/08/16 07:08:51;;;;;;;2.60;0.65;;;15.30;99.90;;;;;;5051182;28;20205;-82
2021/08/16 07:11:17;;;;;;;0.20;0.20;;;15.40;99.90;;;;;;5033806;28;20209;-82
2021/08/16 07:13:43;;;;;;;0.22;0.22;;;15.50;99.90;;;;;;5036939;28;20586;-82
2021/08/16 07:16:09;;;;;;;0.10;0.10;;;15.60;99.90;;;;;;5037259;28;20240;-82
2021/08/16 07:18:35;;;;;;;0.20;0.20;;;15.70;99.90;;;;;;5037571;28;20201;-82
2021/08/16 07:21:05;;;;;;;0.10;0.10;;;15.70;99.90;;;;;;5036238;28;20194;-82
2021/08/16 07:23:32;;;;;;;0.10;0.10;;;15.80;99.90;;;;;;5021202;28;20683;-82
2021/08/16 07:26:00;;;;;;;0.25;0.25;;;15.80;99.90;;;;;;5037037;28;20196;-83
2021/08/16 07:28:28;;;;;;;0.30;0.30;;;16.00;99.90;;;;;;5037088;28;20621;-82
2021/08/16 07:30:55;;;;;;;0.30;0.30;;;16.10;99.90;;;;;;5037355;28;20328;-82
2021/08/16 07:33:21;;;;;;;0.30;0.30;;;16.30;99.90;;;;;;5037324;28;20198;-82
2021/08/16 07:35:47;;;;;;;0.55;0.45;;;16.50;99.90;;;;;;5036072;28;20282;-82
2021/08/16 07:38:12;;;;;;;0.10;0.10;;;16.70;99.90;;;;;;5049480;28;20258;-82
2021/08/16 07:40:38;;;;;;;0.30;0.30;;;17.00;99.90;;;;;;5041552;28;20209;-82
2021/08/16 07:43:04;;;;;;;0.43;0.43;;;17.30;99.90;;;;;;5061690;28;20532;-82
2021/08/16 07:45:30;;;;;;;0.68;0.52;;;17.50;99.90;;;;;;5046954;28;20688;-82
2021/08/16 07:47:56;;;;;;;0.20;0.20;;;17.80;99.90;;;;;;5036405;28;20205;-82
2021/08/16 07:50:22;;;;;;;0.73;0.68;;;18.10;99.90;;;;;;5035959;28;20235;-83
2021/08/16 07:52:48;;;;;;;0.30;0.30;;;18.30;99.90;;;;;;5034945;28;20208;-82
2021/08/16 07:55:14;;;;;;;0.10;0.10;;;18.30;99.90;;;;;;5055674;28;20218;-82
2021/08/16 07:57:39;;;;;;;0.10;0.10;;;18.30;99.90;;;;;;5053941;28;20207;-83
2021/08/16 08:00:08;;;;;;;0.40;0.40;;;18.20;99.90;;;;;;5033776;28;20252;-82
2021/08/16 08:02:50;;;;;;;0.20;0.20;;;18.40;99.90;;;;;;5036566;28;20201;-82
2021/08/16 08:05:21;;;;;;;0.10;0.10;;;18.80;99.90;;;;;;5036678;28;20201;-84
2021/08/16 08:07:47;;;;;;;0.20;0.20;;;18.90;99.90;;;;;;5066041;28;20205;-83
2021/08/16 08:10:15;;;;;;;0.10;0.10;;;18.90;99.90;;;;;;5061235;28;20205;-82
2021/08/16 08:12:42;;;;;;;0.15;0.15;;;19.00;99.90;;;;;;5036859;28;20224;-82
2021/08/16 08:15:09;;;;;;;0.47;0.30;;;19.00;99.90;;;;;;5036811;28;20633;-82
2021/08/16 08:17:34;;;;;;;0.10;0.10;;;18.70;99.90;;;;;;5040315;28;20557;-83
2021/08/16 08:20:00;;;;;;;0.20;0.20;;;18.60;99.90;;;;;;5050897;28;20193;-83
2021/08/16 08:22:27;;;;;;;1.05;0.65;;;18.90;99.90;;;;;;5069379;28;20562;-83
2021/08/16 08:24:53;;;;;;;0.25;0.25;;;19.10;99.90;;;;;;5036366;28;20251;-83
2021/08/16 08:27:20;;;;;;;0.10;0.10;;;19.10;99.90;;;;;;5036732;28;20212;-83
2021/08/16 08:29:45;;;;;;;0.10;0.10;;;19.20;99.90;;;;;;5036810;28;20205;-83
2021/08/16 08:32:12;;;;;;;0.10;0.10;;;19.20;99.90;;;;;;5054280;28;20251;-83
2021/08/16 08:34:38;;;;;;;0.20;0.20;;;19.10;99.90;;;;;;5036093;28;20228;-83
2021/08/16 08:37:10;;;;;;;0.20;0.20;;;19.60;99.90;;;;;;5034531;28;20267;-83
2021/08/16 08:39:38;;;;;;;0.10;0.10;;;19.90;99.90;;;;;;5036237;28;20205;-83
2021/08/16 08:42:05;;;;;;;0.10;0.10;;;19.80;99.90;;;;;;5036938;28;20656;-83
2021/08/16 08:44:31;;;;;;;0.40;0.30;;;19.70;99.90;;;;;;5036094;28;20609;-83
2021/08/16 08:47:00;;;;;;;0.30;0.30;;;19.50;99.90;;;;;;5036286;28;20201;-83
2021/08/16 08:49:29;;;;;;;2.47;0.55;;;19.40;99.90;;;;;;5036097;28;20643;-83
2021/08/16 08:51:54;;;;;;;0.20;0.20;;;19.60;99.90;;;;;;5036465;28;20216;-83
2021/08/16 08:54:23;;;;;;;0.10;0.10;;;19.80;99.90;;;;;;5035167;28;20585;-84
2021/08/16 08:56:49;;;;;;;0.10;0.10;;;20.00;99.90;;;;;;5035315;28;20202;-83
2021/08/16 08:59:17;;;;;;;0.10;0.10;;;20.30;99.90;;;;;;5053030;28;20556;-83
2021/08/16 09:01:59;;;;;;;0.57;0.35;;;20.40;99.90;;;;;;5034290;28;20227;-83
2021/08/16 09:04:28;;;;;;;0.10;0.10;;;20.40;99.90;;;;;;5034678;28;20212;-83
2021/08/16 09:06:54;;;;;;;0.88;0.47;;;20.00;99.90;;;;;;5035682;28;20209;-83
2021/08/16 09:09:20;;;;;;;0.10;0.10;;;19.70;99.90;;;;;;5035570;28;20667;-82
2021/08/16 09:11:50;;;;;;;0.25;0.25;;;19.50;99.90;;;;;;5035745;28;20569;-83
2021/08/16 09:14:16;;;;;;;0.10;0.10;;;19.40;99.90;;;;;;5035751;28;20209;-84
2021/08/16 09:16:45;;;;;;;0.20;0.20;;;19.40;99.90;;;;;;5035562;28;20636;-84
2021/08/16 09:19:19;;;;;;;0.20;0.20;;;19.40;99.90;;;;;;5035630;28;20199;-84
2021/08/16 09:22:01;;;;;;;1.95;0.52;;;19.40;99.90;;;;;;5035550;28;20204;-83
2021/08/16 09:24:33;;;;;;;0.43;0.30;;;19.40;99.90;;;;;;5035477;28;20205;-84
2021/08/16 09:27:07;;;;;;;0.32;0.32;;;19.50;99.90;;;;;;5052324;28;20635;-83
2021/08/16 09:29:33;;;;;;;0.10;0.10;;;19.90;99.90;;;;;;5033312;28;20205;-84
2021/08/16 09:32:01;;;;;;;0.10;0.10;;;19.80;99.90;;;;;;5033172;28;20210;-83
2021/08/16 09:34:37;;;;;;;1.20;0.35;;;19.30;99.90;;;;;;5034848;28;20201;-83
2021/08/16 09:37:18;;;;;;;0.80;0.65;;;19.00;99.90;;;;;;5033808;28;20264;-84
2021/08/16 09:39:44;;;;;;;0.10;0.10;;;19.60;99.90;;;;;;5035163;28;20296;-83
2021/08/16 09:42:10;;;;;;;1.17;0.70;;;19.90;99.90;;;;;;5032110;28;20252;-84
2021/08/16 09:44:49;;;;;;;0.47;0.22;;;20.00;99.90;;;;;;5035107;28;20205;-84
2021/08/16 09:47:15;;;;;;;0.00;0.00;;;20.00;99.90;;;;;;5035181;28;20213;-83
2021/08/16 09:49:41;;;;;;;0.10;0.10;;;20.30;99.90;;;;;;5035012;28;20205;-83
2021/08/16 09:52:10;;;;;;;0.25;0.15;;;20.20;99.90;;;;;;5053016;28;20249;-84
2021/08/16 09:54:37;;;;;;;0.70;0.45;;;19.90;99.90;;;;;;5034887;28;20202;-84
2021/08/16 09:57:04;;;;;;;0.20;0.20;;;19.90;99.90;;;;;;5035685;28;20703;-84
2021/08/16 09:59:32;;;;;;;0.17;0.17;;;20.30;99.90;;;;;;5050517;28;20709;-84
2021/08/16 10:01:58;;;;;;;0.15;0.15;;;20.50;99.90;;;;;;5034591;28;20764;-84
2021/08/16 10:04:24;;;;;;;0.20;0.20;;;20.60;99.90;;;;;;5033669;28;20209;-83
2021/08/16 10:06:52;;;;;;;0.20;0.20;;;20.40;99.90;;;;;;5035115;28;20564;-84
2021/08/16 10:09:21;;;;;;;2.35;0.28;;;19.80;99.90;;;;;;5035149;28;20208;-85
2021/08/16 10:11:48;;;;;;;0.00;0.00;;;19.90;99.90;;;;;;5034416;28;20693;-84
2021/08/16 10:14:15;;;;;;;0.10;0.10;;;20.00;99.90;;;;;;5034734;28;20292;-83
2021/08/16 10:16:45;;;;;;;0.52;0.32;;;20.40;99.90;;;;;;5053504;28;20213;-82
2021/08/16 10:19:17;;;;;;;0.10;0.10;;;21.00;99.90;;;;;;5034602;28;20197;-84
2021/08/16 10:21:44;;;;;;;0.20;0.20;;;21.80;99.90;;;;;;5034820;28;20197;-84
2021/08/16 10:24:31;;;;;;;0.10;0.10;;;21.80;99.90;;;;;;5034623;28;20197;-86
2021/08/16 10:27:07;;;;;;;0.25;0.25;;;21.90;99.90;;;;;;5034716;28;20647;-86
2021/08/16 10:29:34;;;;;;;0.28;0.28;;;21.80;99.90;;;;;;5034659;28;20624;-84
2021/08/16 10:32:01;;;;;;;0.20;0.20;;;21.30;99.90;;;;;;5034632;28;20185;-84
2021/08/16 10:34:35;;;;;;;0.10;0.10;;;20.80;99.90;;;;;;5034149;28;20210;-84
2021/08/16 10:37:04;;;;;;;0.17;0.17;;;20.80;99.90;;;;;;5031046;28;20252;-84
2021/08/16 10:39:45;;;;;;;0.30;0.30;;;21.10;99.90;;;;;;5013669;28;20206;-84
2021/08/16 10:42:16;;;;;;;0.20;0.20;;;21.10;99.90;;;;;;5014015;28;20233;-84
2021/08/16 10:44:45;;;;;;;0.13;0.10;;;21.00;99.90;;;;;;5013403;28;20672;-85
2021/08/16 10:47:24;;;;;;;0.20;0.20;;;20.70;99.90;;;;;;5016763;28;20217;-83
2021/08/16 10:50:00;;;;;;;0.28;0.20;;;20.90;99.90;;;;;;5019421;28;20290;-83
2021/08/16 10:52:25;;;;;;;0.10;0.10;;;21.40;99.90;;;;;;5018122;28;20204;-83
2021/08/16 10:54:51;;;;;;;0.40;0.20;;;21.10;99.90;;;;;;5018841;28;20202;-83
2021/08/16 10:57:17;;;;;;;0.10;0.10;;;20.50;99.90;;;;;;5017189;28;20237;-83
2021/08/16 10:59:44;;;;;;;0.13;0.13;;;20.30;99.90;;;;;;5015147;28;20214;-83
2021/08/16 11:02:10;;;;;;;1.45;0.35;;;20.00;99.90;;;;;;5017088;28;20340;-83
2021/08/16 11:04:37;;;;;;;0.00;0.00;;;19.90;99.90;;;;;;5018197;28;20239;-83
2021/08/16 11:07:06;;;;;;;0.35;0.35;;;19.70;99.90;;;;;;5015011;28;20195;-83
2021/08/16 11:09:37;;;;;;;0.00;0.00;;;19.80;99.90;;;;;;5012470;28;20214;-83
2021/08/16 11:12:09;;;;;;;0.20;0.20;;;19.70;99.90;;;;;;5006861;28;20240;-83
2021/08/16 11:14:40;;;;;;;0.55;0.30;;;19.60;99.90;;;;;;5017825;28;20704;-83
2021/08/16 11:17:07;;;;;;;0.47;0.40;;;19.50;99.90;;;;;;5016811;28;20256;-84
2021/08/16 11:19:47;;;;;;;0.10;0.10;;;19.50;99.90;;;;;;5018333;28;20236;-84
2021/08/16 11:22:15;;;;;;;0.00;0.00;;;19.50;99.90;;;;;;5001127;28;20218;-83
2021/08/16 11:24:43;;;;;;;0.35;0.30;;;19.60;99.90;;;;;;5017134;28;20692;-84
2021/08/16 11:27:11;;;;;;;0.10;0.10;;;19.70;99.90;;;;;;5017240;28;20260;-83
2021/08/16 11:29:38;;;;;;;0.05;0.05;;;19.80;99.90;;;;;;5017873;28;20214;-83
2021/08/16 11:32:05;;;;;;;0.10;0.10;;;19.70;99.90;;;;;;5017970;28;20673;-83
2021/08/16 11:34:53;;;;;;;1.85;0.65;;;19.60;99.90;;;;;;5017542;28;20206;-84
2021/08/16 11:37:20;;;;;;;0.28;0.28;;;19.50;99.90;;;;;;5052598;28;20293;-85
2021/08/16 11:39:48;;;;;;;0.45;0.40;;;19.30;99.90;;;;;;5037611;28;20208;-83
2021/08/16 11:42:13;;;;;;;0.10;0.10;;;19.30;99.90;;;;;;5037646;28;20267;-83
2021/08/16 11:44:39;;;;;;;0.20;0.20;;;19.20;99.90;;;;;;5035248;28;20687;-82
2021/08/16 11:47:05;;;;;;;0.10;0.10;;;18.90;99.90;;;;;;5036444;28;20201;-82
2021/08/16 11:49:36;;;;;;;0.10;0.10;;;18.60;99.90;;;;;;5054152;28;20699;-82
2021/08/16 11:52:03;;;;;;;0.10;0.10;;;18.30;99.90;;;;;;5036365;28;20648;-83
2021/08/16 11:54:36;;;;;;;0.15;0.15;;;18.10;99.90;;;;;;5036327;28;20213;-83
2021/08/16 11:57:07;;;;;;;0.17;0.17;;;18.00;99.90;;;;;;5037438;28;20198;-83
2021/08/16 11:59:33;;;;;;;0.65;0.65;;;18.10;99.90;;;;;;5035982;28;20194;-82
2021/08/16 12:02:03;;;;;;;0.20;0.20;;;18.10;99.90;;;;;;5037163;28;20206;-82
2021/08/16 12:04:29;;;;;;;0.65;0.47;;;18.20;99.90;;;;;;5053793;28;20248;-83
2021/08/16 12:06:55;;;;;;;0.35;0.22;;;18.40;99.90;;;;;;5037027;28;20684;-83
2021/08/16 12:09:31;;;;;;;0.20;0.20;;;18.50;99.90;;;;;;5036852;28;20288;-85
2021/08/16 12:12:02;;;;;;;0.10;0.10;;;18.50;99.90;;;;;;5035722;28;20205;-86
2021/08/16 12:14:33;;;;;;;0.38;0.35;;;18.60;99.90;;;;;;5033510;28;20259;-85
2021/08/16 12:16:59;;;;;;;0.38;0.30;;;18.70;99.90;;;;;;5037075;28;20201;-83
2021/08/16 12:19:25;;;;;;;0.10;0.10;;;18.80;99.90;;;;;;5036730;28;20244;-83
2021/08/16 12:22:05;;;;;;;0.10;0.10;;;18.70;99.90;;;;;;5033439;28;20206;-83
2021/08/16 12:24:31;;;;;;;0.13;0.13;;;18.50;99.90;;;;;;5049425;28;20208;-83
2021/08/16 12:27:02;;;;;;;0.15;0.15;;;18.40;99.90;;;;;;5036157;28;20239;-83
2021/08/16 12:29:37;;;;;;;0.13;0.13;;;18.40;99.90;;;;;;5049886;28;20205;-82
2021/08/16 12:32:13;;;;;;;0.10;0.10;;;18.20;99.90;;;;;;5032170;28;20672;-82
2021/08/16 12:34:39;;;;;;;0.10;0.10;;;18.00;99.90;;;;;;5036097;28;20205;-82
2021/08/16 12:37:06;;;;;;;0.32;0.32;;;17.80;99.90;;;;;;5036378;28;20722;-82
2021/08/16 12:39:33;;;;;;;0.10;0.10;;;17.60;99.90;;;;;;5036400;28;20340;-82
2021/08/16 12:42:07;;;;;;;0.17;0.17;;;17.30;99.90;;;;;;5036482;28;20670;-82
2021/08/16 12:44:36;;;;;;;5.30;1.27;;;17.10;99.90;;;;;;5052776;28;20216;-82
2021/08/16 12:47:06;;;;;;;0.30;0.30;;;16.90;99.90;;;;;;5035083;28;20641;-82
2021/08/16 12:49:32;;;;;;;0.10;0.10;;;16.90;99.90;;;;;;5036132;28;20315;-82
2021/08/16 12:52:00;;;;;;;0.20;0.20;;;16.90;99.90;;;;;;5036128;28;20198;-83